createdAt,value
2023-02-28T00:00:53.885Z,0.47
2023-02-28T00:10:54.129Z,0.47
2023-02-28T00:20:54.468Z,0.44
2023-02-28T00:30:54.525Z,0.62
2023-02-28T00:40:55.754Z,0.42
2023-02-28T00:50:55.003Z,0.10
2023-02-28T01:00:55.400Z,-0.19
2023-02-28T01:10:55.464Z,-0.28
2023-02-28T01:20:55.789Z,-0.42
2023-02-28T01:30:55.849Z,-0.42
2023-02-28T01:40:56.156Z,-0.36
2023-02-28T01:50:56.207Z,-0.22
2023-02-28T02:00:56.530Z,-0.37
2023-02-28T02:10:56.580Z,-0.46
2023-02-28T02:20:56.886Z,-0.67
2023-02-28T02:30:56.925Z,-0.72
2023-02-28T02:40:58.174Z,-0.91
2023-02-28T02:50:57.425Z,-1.09
2023-02-28T03:00:57.769Z,-1.01
2023-02-28T03:10:57.795Z,-1.01
2023-02-28T03:20:58.098Z,-1.10
2023-02-28T03:31:03.641Z,-1.01
2023-02-28T03:40:58.271Z,-0.98
2023-02-28T03:50:58.510Z,-0.92
2023-02-28T04:00:58.733Z,-0.94
2023-02-28T04:10:58.977Z,-0.91
2023-02-28T04:20:59.196Z,-0.83
2023-02-28T04:30:59.474Z,-0.80
2023-02-28T04:40:59.502Z,-0.85
2023-02-28T04:50:59.851Z,-0.80
2023-02-28T05:00:59.878Z,-0.80
2023-02-28T05:11:00.216Z,-0.80
2023-02-28T05:21:00.240Z,-0.79
2023-02-28T05:31:00.590Z,-0.70
2023-02-28T05:41:00.639Z,-0.69
2023-02-28T05:51:00.945Z,-0.61
2023-02-28T06:01:00.993Z,-0.73
2023-02-28T06:11:01.322Z,-0.70
2023-02-28T06:21:01.344Z,-0.55
2023-02-28T06:31:01.628Z,-0.70
2023-02-28T06:41:01.728Z,-0.72
2023-02-28T06:51:02.066Z,-0.58
2023-02-28T07:01:02.103Z,-0.47
2023-02-28T07:11:02.425Z,-0.28
2023-02-28T07:21:02.460Z,-0.08
2023-02-28T07:31:02.814Z,0.03
2023-02-28T07:41:02.930Z,0.17
2023-02-28T07:51:03.083Z,0.24
2023-02-28T08:01:03.173Z,0.26
2023-02-28T08:11:06.518Z,0.29
2023-02-28T08:21:03.349Z,0.51
2023-02-28T08:31:03.616Z,0.78
2023-02-28T08:41:03.648Z,0.96
2023-02-28T08:51:08.537Z,1.06
2023-02-28T09:01:04.080Z,1.29
2023-02-28T09:11:04.142Z,1.42
2023-02-28T09:21:04.382Z,1.63
2023-02-28T09:31:04.769Z,1.95
2023-02-28T09:41:04.869Z,1.95
2023-02-28T09:51:05.199Z,2.10
2023-02-28T10:01:05.296Z,2.56
2023-02-28T10:11:05.482Z,4.00
2023-02-28T10:21:05.543Z,4.59
2023-02-28T10:31:08.951Z,4.84
2023-02-28T10:41:06.100Z,4.97
2023-02-28T10:51:06.206Z,5.72
2023-02-28T11:01:06.237Z,5.61
2023-02-28T11:11:06.584Z,6.25
2023-02-28T11:21:06.610Z,6.18
2023-02-28T11:31:08.896Z,6.89
2023-02-28T11:41:06.938Z,6.92
2023-02-28T11:51:07.204Z,6.80
2023-02-28T12:01:07.514Z,6.95
2023-02-28T12:11:07.584Z,6.99
2023-02-28T12:21:07.634Z,7.25
2023-02-28T12:31:08.043Z,7.10
2023-02-28T12:41:08.100Z,7.64
2023-02-28T12:51:10.383Z,7.72
2023-02-28T13:01:08.642Z,8.04
2023-02-28T13:11:20.846Z,7.86
2023-02-28T13:21:09.863Z,7.49
2023-02-28T13:31:09.206Z,7.77
2023-02-28T13:41:09.255Z,7.87
2023-02-28T13:51:09.539Z,7.69
2023-02-28T14:01:09.603Z,8.20
2023-02-28T14:11:10.733Z,8.00
2023-02-28T14:21:09.794Z,8.02
2023-02-28T14:31:10.179Z,7.61
2023-02-28T14:41:10.271Z,7.23
2023-02-28T14:51:10.549Z,6.64
2023-02-28T15:01:10.686Z,6.11
2023-02-28T15:11:10.824Z,5.76
2023-02-28T15:21:10.883Z,5.36
2023-02-28T15:31:11.237Z,4.99
2023-02-28T15:41:11.280Z,4.44
2023-02-28T15:51:11.555Z,4.45
2023-02-28T16:01:11.606Z,4.15
2023-02-28T16:11:12.105Z,4.20
2023-02-28T16:21:11.995Z,4.00
2023-02-28T16:31:12.347Z,3.88
2023-02-28T16:41:12.606Z,3.55
2023-02-28T16:51:12.586Z,3.36
2023-02-28T17:01:12.688Z,3.28
2023-02-28T17:11:13.062Z,3.18
2023-02-28T17:21:12.981Z,3.11
2023-02-28T17:31:13.560Z,3.03
2023-02-28T17:41:13.384Z,2.81
2023-02-28T17:51:13.745Z,2.79
2023-02-28T18:01:13.727Z,2.92
2023-02-28T18:11:17.188Z,2.78
2023-02-28T18:21:14.085Z,2.74
2023-02-28T18:31:14.731Z,2.69
2023-02-28T18:41:14.775Z,2.45
2023-02-28T18:51:14.782Z,2.42
2023-02-28T19:01:15.110Z,2.34
2023-02-28T19:11:15.397Z,2.36
2023-02-28T19:21:15.314Z,2.41
2023-02-28T19:31:15.957Z,2.21
2023-02-28T19:41:15.982Z,2.31
2023-02-28T20:01:16.392Z,2.30
2023-02-28T20:11:18.416Z,2.28
2023-02-28T20:21:16.708Z,2.17
2023-02-28T20:31:16.553Z,2.10
2023-02-28T20:41:16.875Z,2.21
2023-02-28T20:51:18.099Z,2.03
2023-02-28T21:01:18.128Z,2.10
2023-02-28T21:11:17.283Z,2.17
2023-02-28T21:21:17.548Z,2.12
2023-02-28T21:31:18.019Z,2.09
2023-02-28T21:41:17.944Z,2.09
2023-02-28T21:51:18.224Z,2.05
2023-02-28T22:01:18.360Z,1.99
2023-02-28T22:11:18.491Z,1.98
2023-02-28T22:21:18.521Z,1.95
2023-02-28T22:31:18.871Z,2.00
2023-02-28T22:41:18.928Z,1.91
2023-02-28T22:51:19.231Z,2.03
2023-02-28T23:01:19.318Z,2.07
2023-02-28T23:11:19.500Z,1.99
2023-02-28T23:21:19.568Z,1.95
2023-02-28T23:31:19.884Z,2.02
2023-02-28T23:41:19.935Z,2.00
2023-02-28T23:51:20.240Z,1.84
